createdAt,value
2017-10-09T00:01:55.628Z,79.27
2017-10-09T00:03:57.103Z,79.83
2017-10-09T00:05:58.510Z,79.83
2017-10-09T00:07:59.951Z,80.12
2017-10-09T00:10:02.013Z,80.02
2017-10-09T00:12:03.434Z,80.31
2017-10-09T00:14:04.859Z,80.22
2017-10-09T00:16:06.450Z,80.02
2017-10-09T00:18:07.863Z,80.50
2017-10-09T00:20:09.288Z,80.02
2017-10-09T00:22:10.727Z,80.22
2017-10-09T00:24:12.223Z,80.22
2017-10-09T00:26:13.803Z,80.41
2017-10-09T00:28:15.314Z,79.83
2017-10-09T00:30:16.781Z,79.46
2017-10-09T00:32:18.221Z,78.88
2017-10-09T00:34:19.630Z,79.55
2017-10-09T00:36:21.048Z,79.64
2017-10-09T00:38:22.466Z,79.46
2017-10-09T00:40:23.874Z,80.02
2017-10-09T00:42:25.285Z,79.89
2017-10-09T00:44:26.697Z,79.27
2017-10-09T00:46:28.105Z,79.80
2017-10-09T00:48:29.517Z,79.32
2017-10-09T00:50:30.996Z,79.93
2017-10-09T00:52:32.417Z,79.55
2017-10-09T00:54:33.829Z,79.80
2017-10-09T00:56:35.245Z,79.64
2017-10-09T00:58:36.729Z,79.46
2017-10-09T01:00:38.147Z,80.27
2017-10-09T01:02:39.561Z,79.70
2017-10-09T01:04:40.969Z,79.22
2017-10-09T01:06:42.379Z,78.85
2017-10-09T01:08:43.923Z,80.27
2017-10-09T01:10:45.337Z,79.80
2017-10-09T01:12:46.757Z,80.18
2017-10-09T01:14:48.281Z,80.08
2017-10-09T01:16:49.713Z,79.51
2017-10-09T01:18:51.132Z,80.08
2017-10-09T01:20:52.535Z,79.99
2017-10-09T01:22:53.938Z,79.99
2017-10-09T01:24:55.348Z,80.18
2017-10-09T01:26:56.774Z,79.99
2017-10-09T01:28:58.185Z,80.55
2017-10-09T01:30:59.595Z,79.99
2017-10-09T01:33:01.003Z,80.27
2017-10-09T01:35:02.408Z,80.08
2017-10-09T01:37:03.828Z,80.36
2017-10-09T01:39:05.238Z,80.55
2017-10-09T01:41:06.644Z,80.55
2017-10-09T01:43:08.065Z,81.13
2017-10-09T01:45:09.477Z,80.94
2017-10-09T01:47:10.888Z,81.41
2017-10-09T01:49:12.443Z,81.41
2017-10-09T01:51:13.876Z,81.51
2017-10-09T01:53:15.385Z,81.23
2017-10-09T01:55:16.774Z,81.23
2017-10-09T01:57:18.204Z,80.75
2017-10-09T01:59:19.610Z,81.03
2017-10-09T02:01:21.026Z,80.94
2017-10-09T02:03:22.448Z,80.94
2017-10-09T02:05:23.855Z,81.23
2017-10-09T02:07:25.268Z,80.75
2017-10-09T02:09:26.683Z,80.84
2017-10-09T02:11:28.094Z,81.13
2017-10-09T02:13:29.501Z,80.75
2017-10-09T02:15:30.912Z,81.76
2017-10-09T02:17:32.325Z,80.84
2017-10-09T02:19:33.733Z,81.13
2017-10-09T02:21:35.164Z,81.28
2017-10-09T02:23:36.577Z,80.99
2017-10-09T02:25:37.982Z,80.99
2017-10-09T02:27:39.394Z,81.09
2017-10-09T02:29:40.801Z,80.94
2017-10-09T02:31:42.264Z,80.80
2017-10-09T02:33:43.861Z,80.99
2017-10-09T02:35:45.302Z,81.18
2017-10-09T02:37:47.390Z,80.52
2017-10-09T02:39:48.853Z,80.61
2017-10-09T02:41:50.297Z,80.80
2017-10-09T02:43:51.733Z,80.42
2017-10-09T02:45:53.170Z,80.42
2017-10-09T02:47:54.588Z,80.71
2017-10-09T02:49:56.015Z,80.71
2017-10-09T02:51:57.427Z,80.23
2017-10-09T02:53:58.837Z,80.13
2017-10-09T02:56:00.251Z,80.52
2017-10-09T02:58:01.662Z,80.04
2017-10-09T03:00:03.179Z,80.99
2017-10-09T03:02:04.632Z,80.80
2017-10-09T03:04:06.022Z,80.71
2017-10-09T03:06:07.624Z,80.42
2017-10-09T03:08:09.073Z,80.80
2017-10-09T03:10:10.528Z,80.80
2017-10-09T03:12:12.002Z,80.90
2017-10-09T03:14:13.421Z,80.90
2017-10-09T03:16:14.867Z,80.71
2017-10-09T03:18:57.330Z,81.18
2017-10-09T03:20:58.732Z,80.99
2017-10-09T03:23:00.656Z,81.18
2017-10-09T03:25:02.057Z,81.37
2017-10-09T03:27:03.469Z,81.66
2017-10-09T03:29:05.007Z,81.66
2017-10-09T03:31:06.424Z,81.85
2017-10-09T03:33:07.826Z,80.99
2017-10-09T03:35:09.242Z,81.28
2017-10-09T03:37:10.653Z,81.28
2017-10-09T03:39:12.063Z,81.56
2017-10-09T03:41:13.480Z,81.09
2017-10-09T03:43:14.891Z,82.04
2017-10-09T03:45:16.332Z,81.95
2017-10-09T03:47:17.752Z,82.99
2017-10-09T03:49:19.154Z,82.70
2017-10-09T03:51:20.681Z,82.80
2017-10-09T03:53:22.232Z,82.90
2017-10-09T03:55:23.699Z,82.51
2017-10-09T03:57:25.116Z,82.14
2017-10-09T03:59:26.713Z,82.70
2017-10-09T04:01:28.149Z,83.37
2017-10-09T04:03:29.561Z,83.56
2017-10-09T04:05:30.966Z,83.28
2017-10-09T04:07:32.374Z,84.33
2017-10-09T04:09:33.865Z,84.52
2017-10-09T04:11:35.328Z,85.37
2017-10-09T04:13:36.735Z,85.94
2017-10-09T04:15:38.144Z,86.32
2017-10-09T04:17:39.798Z,86.61
2017-10-09T04:19:41.189Z,87.18
2017-10-09T04:21:42.845Z,87.18
2017-10-09T04:23:44.499Z,86.90
2017-10-09T04:25:46.051Z,87.23
2017-10-09T04:27:47.467Z,87.99
2017-10-09T04:29:48.879Z,88.18
2017-10-09T04:31:50.291Z,88.60
2017-10-09T04:33:51.697Z,88.66
2017-10-09T04:35:53.108Z,88.85
2017-10-09T04:37:54.589Z,88.94
2017-10-09T04:39:56.038Z,89.14
2017-10-09T04:41:57.669Z,88.85
2017-10-09T04:43:59.106Z,89.23
2017-10-09T04:46:00.679Z,89.04
2017-10-09T04:48:02.134Z,88.51
2017-10-09T04:50:03.568Z,88.32
2017-10-09T04:52:05.008Z,88.60
2017-10-09T04:54:06.776Z,88.46
2017-10-09T04:56:08.238Z,88.37
2017-10-09T04:58:09.692Z,88.85
2017-10-09T05:00:11.284Z,88.94
2017-10-09T05:02:12.728Z,88.79
2017-10-09T05:04:14.285Z,87.94
2017-10-09T05:06:15.740Z,87.75
2017-10-09T05:08:17.285Z,88.75
2017-10-09T05:10:18.822Z,89.14
2017-10-09T05:12:20.302Z,89.61
2017-10-09T05:14:21.718Z,89.80
2017-10-09T05:16:23.128Z,89.70
2017-10-09T05:18:24.534Z,89.42
2017-10-09T05:20:25.945Z,89.51
2017-10-09T05:22:27.493Z,89.89
2017-10-09T05:24:28.901Z,89.61
2017-10-09T05:26:30.482Z,88.94
2017-10-09T05:28:31.891Z,89.51
2017-10-09T05:30:33.317Z,89.51
2017-10-09T05:32:34.724Z,89.42
2017-10-09T05:34:36.129Z,88.79
2017-10-09T05:36:37.637Z,88.60
2017-10-09T05:38:39.057Z,88.13
2017-10-09T05:40:40.464Z,87.94
2017-10-09T05:42:41.873Z,87.18
2017-10-09T05:44:43.489Z,87.18
2017-10-09T05:46:44.905Z,87.27
2017-10-09T05:48:46.482Z,87.46
2017-10-09T05:50:47.882Z,88.13
2017-10-09T05:52:49.295Z,88.60
2017-10-09T05:54:50.890Z,89.89
2017-10-09T05:56:52.300Z,89.70
2017-10-09T05:58:53.712Z,89.42
2017-10-09T06:00:55.131Z,89.70
2017-10-09T06:02:56.540Z,90.28
2017-10-09T06:04:58.086Z,90.56
2017-10-09T06:06:59.495Z,90.75
2017-10-09T06:09:00.906Z,90.75
2017-10-09T06:11:02.314Z,90.70
2017-10-09T06:13:03.773Z,90.08
2017-10-09T06:15:05.185Z,90.70
2017-10-09T06:17:06.598Z,90.56
2017-10-09T06:19:08.778Z,90.66
2017-10-09T06:21:10.211Z,91.03
2017-10-09T06:23:11.619Z,91.99
2017-10-09T06:25:13.030Z,92.08
2017-10-09T06:27:14.595Z,92.36
2017-10-09T06:29:16.026Z,91.61
2017-10-09T06:31:17.432Z,91.51
2017-10-09T06:33:18.841Z,91.03
2017-10-09T06:35:20.251Z,91.51
2017-10-09T06:37:21.684Z,91.61
2017-10-09T06:39:23.075Z,91.61
2017-10-09T06:41:24.503Z,91.61
2017-10-09T06:43:25.915Z,91.61
2017-10-09T06:45:27.579Z,91.51
2017-10-09T06:47:29.065Z,91.27
2017-10-09T06:49:30.481Z,91.42
2017-10-09T06:51:31.892Z,91.27
2017-10-09T06:53:33.309Z,91.56
2017-10-09T06:55:34.939Z,91.75
2017-10-09T06:57:36.372Z,90.70
2017-10-09T06:59:38.055Z,90.61
2017-10-09T07:01:39.470Z,90.70
2017-10-09T07:03:40.885Z,90.51
2017-10-09T07:05:42.382Z,90.42
2017-10-09T07:07:43.786Z,90.13
2017-10-09T07:09:45.201Z,90.80
2017-10-09T07:11:46.618Z,91.37
2017-10-09T07:13:48.032Z,91.56
2017-10-09T07:15:49.443Z,91.37
2017-10-09T07:17:50.878Z,91.65
2017-10-09T07:19:52.339Z,91.65
2017-10-09T07:21:53.785Z,91.75
2017-10-09T07:23:55.254Z,91.46
2017-10-09T07:25:56.729Z,91.89
2017-10-09T07:27:58.174Z,91.51
2017-10-09T07:29:59.623Z,91.60
2017-10-09T07:32:01.166Z,91.60
2017-10-09T07:34:02.973Z,91.51
2017-10-09T07:36:05.073Z,91.70
2017-10-09T07:38:06.551Z,90.84
2017-10-09T07:40:08.058Z,91.70
2017-10-09T07:42:09.529Z,91.41
2017-10-09T07:44:10.958Z,91.55
2017-10-09T07:46:12.418Z,90.98
2017-10-09T07:48:13.862Z,90.79
2017-10-09T07:50:15.407Z,91.65
2017-10-09T07:52:16.865Z,91.55
2017-10-09T07:54:18.331Z,92.27
2017-10-09T07:56:19.873Z,92.18
2017-10-09T07:58:21.440Z,93.89
2017-10-09T08:00:22.868Z,93.98
2017-10-09T08:02:24.288Z,93.79
2017-10-09T08:04:25.977Z,93.60
2017-10-09T08:06:27.433Z,94.27
2017-10-09T08:08:28.944Z,93.79
2017-10-09T08:10:30.421Z,93.93
2017-10-09T08:12:31.960Z,93.65
2017-10-09T08:14:33.417Z,93.74
2017-10-09T08:16:34.937Z,93.41
2017-10-09T08:18:36.400Z,94.37
2017-10-09T08:20:37.857Z,95.65
2017-10-09T08:22:39.307Z,94.98
2017-10-09T08:24:40.872Z,94.79
2017-10-09T08:26:42.322Z,94.41
2017-10-09T08:28:43.881Z,94.79
2017-10-09T08:30:45.438Z,94.89
2017-10-09T08:32:46.878Z,94.98
2017-10-09T08:34:48.411Z,95.03
2017-10-09T08:36:49.855Z,95.12
2017-10-09T08:38:51.271Z,94.65
2017-10-09T08:40:52.685Z,93.79
2017-10-09T08:42:54.102Z,94.65
2017-10-09T08:44:55.517Z,93.98
2017-10-09T08:46:56.936Z,93.84
2017-10-09T08:48:58.432Z,93.84
2017-10-09T08:50:59.881Z,94.32
2017-10-09T08:53:01.338Z,94.03
2017-10-09T08:55:02.755Z,93.74
2017-10-09T08:57:04.178Z,94.08
2017-10-09T08:59:05.611Z,94.74
2017-10-09T09:01:07.021Z,93.88
2017-10-09T09:03:08.506Z,94.93
2017-10-09T09:05:09.921Z,95.22
2017-10-09T09:07:11.336Z,94.56
2017-10-09T09:09:12.751Z,95.51
2017-10-09T09:11:14.171Z,96.51
2017-10-09T09:13:15.585Z,95.56
2017-10-09T09:15:17.004Z,94.70
2017-10-09T09:17:18.420Z,94.60
2017-10-09T09:19:19.863Z,94.98
2017-10-09T09:21:21.290Z,93.84
2017-10-09T09:23:22.705Z,93.88
2017-10-09T09:25:24.122Z,93.02
2017-10-09T09:27:25.897Z,93.22
2017-10-09T09:29:27.243Z,92.36
2017-10-09T09:31:28.660Z,91.69
2017-10-09T09:33:30.074Z,92.83
2017-10-09T09:35:31.582Z,92.55
2017-10-09T09:37:33.031Z,93.22
2017-10-09T09:39:34.645Z,93.31
2017-10-09T09:41:36.055Z,92.50
2017-10-09T09:43:37.474Z,92.17
2017-10-09T09:45:38.891Z,93.36
2017-10-09T09:47:40.312Z,92.31
2017-10-09T09:49:41.749Z,92.02
2017-10-09T09:51:43.160Z,92.02
2017-10-09T09:53:44.581Z,91.64
2017-10-09T09:55:46.009Z,92.79
2017-10-09T09:57:47.491Z,90.69
2017-10-09T09:59:48.910Z,91.16
2017-10-09T10:01:50.341Z,91.64
2017-10-09T10:03:51.760Z,92.50
2017-10-09T10:05:53.180Z,90.25
2017-10-09T10:07:54.599Z,90.54
2017-10-09T10:09:56.017Z,91.30
2017-10-09T10:11:57.455Z,90.31
2017-10-09T10:13:58.871Z,90.40
2017-10-09T10:16:00.367Z,90.40
2017-10-09T10:18:01.783Z,90.64
2017-10-09T10:20:03.283Z,90.88
2017-10-09T10:22:04.734Z,89.87
2017-10-09T10:24:06.221Z,90.45
2017-10-09T10:26:07.650Z,90.16
2017-10-09T10:28:09.076Z,88.63
2017-10-09T10:30:10.536Z,89.01
2017-10-09T10:32:11.955Z,89.73
2017-10-09T10:34:13.382Z,88.48
2017-10-09T10:36:14.802Z,87.82
2017-10-09T10:38:16.230Z,88.82
2017-10-09T10:40:17.655Z,89.06
2017-10-09T10:42:19.075Z,89.53
2017-10-09T10:44:20.495Z,89.53
2017-10-09T10:46:21.909Z,88.87
2017-10-09T10:48:23.327Z,88.82
2017-10-09T10:50:24.742Z,89.87
2017-10-09T10:52:26.168Z,89.49
2017-10-09T10:54:27.585Z,89.68
2017-10-09T10:56:28.997Z,89.97
2017-10-09T10:58:30.422Z,90.16
2017-10-09T11:00:31.840Z,89.49
2017-10-09T11:02:33.264Z,90.16
2017-10-09T11:04:34.688Z,89.87
2017-10-09T11:06:36.107Z,89.78
2017-10-09T11:08:37.524Z,89.87
2017-10-09T11:10:38.940Z,90.45
2017-10-09T11:12:40.360Z,90.49
2017-10-09T11:14:41.779Z,90.97
2017-10-09T11:16:43.189Z,90.30
2017-10-09T11:18:44.621Z,90.20
2017-10-09T11:20:46.110Z,89.34
2017-10-09T11:22:47.606Z,90.39
2017-10-09T11:24:49.053Z,89.73
2017-10-09T11:26:50.467Z,89.87
2017-10-09T11:28:51.884Z,90.25
2017-10-09T11:30:53.311Z,91.21
2017-10-09T11:32:54.732Z,91.11
2017-10-09T11:34:56.152Z,91.64
2017-10-09T11:36:57.567Z,91.25
2017-10-09T11:38:58.986Z,91.16
2017-10-09T11:41:00.404Z,90.20
2017-10-09T11:43:01.822Z,89.92
2017-10-09T11:45:03.259Z,89.82
2017-10-09T11:47:04.674Z,90.39
2017-10-09T11:49:06.156Z,89.92
2017-10-09T11:51:07.565Z,90.20
2017-10-09T11:53:08.988Z,90.63
2017-10-09T11:55:10.426Z,90.92
2017-10-09T11:57:11.863Z,89.67
2017-10-09T11:59:13.296Z,89.77
2017-10-09T12:01:14.717Z,88.96
2017-10-09T12:03:16.149Z,89.53
2017-10-09T12:05:17.574Z,89.77
2017-10-09T12:07:18.989Z,89.10
2017-10-09T12:09:20.411Z,88.72
2017-10-09T12:11:21.830Z,89.77
2017-10-09T12:13:24.165Z,89.77
2017-10-09T12:15:25.591Z,88.81
2017-10-09T12:17:27.222Z,87.23
2017-10-09T12:19:28.612Z,87.43
2017-10-09T12:21:30.028Z,88.48
2017-10-09T12:23:31.448Z,89.19
2017-10-09T12:25:32.879Z,86.13
2017-10-09T12:27:34.299Z,86.37
2017-10-09T12:29:35.876Z,87.04
2017-10-09T12:31:37.310Z,87.14
2017-10-09T12:33:38.727Z,87.04
2017-10-09T12:35:40.179Z,87.33
2017-10-09T12:37:41.730Z,87.04
2017-10-09T12:39:43.162Z,86.80
2017-10-09T12:41:44.595Z,85.75
2017-10-09T12:43:46.303Z,84.88
2017-10-09T12:45:47.717Z,86.22
2017-10-09T12:47:49.144Z,85.79
2017-10-09T12:49:50.620Z,85.60
2017-10-09T12:51:52.048Z,84.92
2017-10-09T12:53:53.476Z,84.16
2017-10-09T12:55:54.896Z,84.26
2017-10-09T12:57:56.314Z,84.92
2017-10-09T12:59:57.737Z,84.92
2017-10-09T13:01:59.159Z,85.27
2017-10-09T13:04:00.582Z,86.32
2017-10-09T13:06:02.001Z,85.46
2017-10-09T13:08:03.424Z,86.61
2017-10-09T13:10:04.865Z,87.08
2017-10-09T13:12:06.279Z,87.27
2017-10-09T13:14:07.699Z,86.57
2017-10-09T13:16:09.146Z,87.23
2017-10-09T13:18:10.563Z,88.00
2017-10-09T13:20:11.988Z,88.38
2017-10-09T13:22:13.405Z,88.29
2017-10-09T13:24:14.828Z,87.62
2017-10-09T13:26:16.248Z,89.05
2017-10-09T13:28:17.673Z,87.43
2017-10-09T13:30:19.376Z,87.14
2017-10-09T13:32:20.796Z,87.47
2017-10-09T13:34:22.215Z,88.33
2017-10-09T13:36:23.673Z,86.99
2017-10-09T13:38:25.136Z,86.51
2017-10-09T13:40:26.551Z,85.65
2017-10-09T13:42:28.150Z,85.94
2017-10-09T13:44:29.980Z,85.36
2017-10-09T13:46:31.419Z,86.32
2017-10-09T13:48:32.839Z,86.94
2017-10-09T13:50:34.253Z,86.76
2017-10-09T13:52:35.693Z,86.85
2017-10-09T13:54:37.117Z,88.19
2017-10-09T13:56:38.547Z,86.57
2017-10-09T13:58:39.971Z,87.43
2017-10-09T14:00:41.387Z,87.81
2017-10-09T14:02:42.812Z,87.81
2017-10-09T14:04:44.223Z,87.90
2017-10-09T14:06:45.646Z,88.76
2017-10-09T14:08:47.066Z,88.38
2017-10-09T14:10:48.501Z,87.90
2017-10-09T14:12:49.924Z,88.67
2017-10-09T14:14:51.341Z,88.76
2017-10-09T14:16:52.763Z,89.15
2017-10-09T14:18:54.231Z,89.15
2017-10-09T14:20:55.659Z,89.15
2017-10-09T14:22:57.152Z,89.72
2017-10-09T14:24:58.656Z,89.72
2017-10-09T14:27:00.126Z,89.53
2017-10-09T14:29:01.586Z,89.62
2017-10-09T14:31:03.048Z,89.81
